Time;durP1;ratioP1;P1;durP2;ratioP2;P2;SDS_P1;SDS_P2;PMS_P1;PMS_P2;Temp;Humidity;BMP_temperature;BMP_pressure;BME280_temperature;BME280_humidity;BME280_pressure;Samples;Min_cycle;Max_cycle;Signal;HPM_P1;HPM_P2
2023/05/13 00:00:54;;;;;;;48.70;26.90;;;23.40;57.40;;;;;;221796;1264;22776;-50
2023/05/13 00:05:58;;;;;;;51.90;27.90;;;23.30;57.30;;;;;;221692;1257;22520;-48
2023/05/13 00:11:02;;;;;;;48.90;26.50;;;23.30;57.60;;;;;;221776;1266;22747;-52
2023/05/13 00:16:06;;;;;;;44.00;26.40;;;23.30;57.20;;;;;;221780;1256;24279;-48
2023/05/13 00:21:10;;;;;;;43.30;24.60;;;23.30;57.20;;;;;;221499;1247;22842;-44
2023/05/13 00:26:15;;;;;;;43.30;24.20;;;23.30;57.10;;;;;;227151;1263;22582;-45
2023/05/13 00:31:19;;;;;;;41.30;23.80;;;23.40;56.90;;;;;;228733;1257;25351;-46
2023/05/13 00:36:26;;;;;;;45.80;23.90;;;23.50;56.40;;;;;;224040;1267;22533;-46
2023/05/13 00:41:30;;;;;;;42.00;23.60;;;23.50;56.60;;;;;;224136;1256;22514;-47
2023/05/13 00:46:35;;;;;;;38.20;22.90;;;23.40;56.40;;;;;;221817;1257;24197;-46
2023/05/13 00:51:39;;;;;;;36.70;21.70;;;23.30;56.70;;;;;;221733;1266;24042;-45
2023/05/13 00:56:43;;;;;;;34.90;21.30;;;23.30;56.90;;;;;;221725;1264;23912;-47
2023/05/13 01:02:01;;;;;;;35.60;21.30;;;23.20;56.90;;;;;;221804;1264;22508;-47
2023/05/13 01:07:13;;;;;;;34.40;20.80;;;23.10;57.00;;;;;;221863;1256;22514;-47
2023/05/13 01:12:35;;;;;;;36.80;20.70;;;23.10;57.00;;;;;;221789;1259;24218;-46
2023/05/13 01:18:05;;;;;;;29.90;19.30;;;23.10;57.00;;;;;;221853;1257;22574;-45
2023/05/13 01:23:10;;;;;;;33.10;19.60;;;23.10;57.30;;;;;;221902;1257;25317;-43
2023/05/13 01:28:15;;;;;;;30.00;20.10;;;23.10;57.00;;;;;;221823;1264;22638;-46
2023/05/13 01:33:22;;;;;;;28.10;17.80;;;23.00;57.00;;;;;;221771;1260;22511;-52
2023/05/13 01:38:27;;;;;;;27.70;19.00;;;23.00;57.50;;;;;;221779;1256;24240;-49
2023/05/13 01:43:32;;;;;;;34.00;18.80;;;23.00;57.20;;;;;;221924;1263;22534;-48
2023/05/13 01:48:36;;;;;;;33.50;18.90;;;23.00;57.50;;;;;;221767;1261;24236;-46
2023/05/13 01:53:41;;;;;;;27.10;17.00;;;23.00;57.10;;;;;;221721;1256;22534;-48
2023/05/13 01:58:45;;;;;;;27.60;17.70;;;23.00;57.00;;;;;;221815;1256;24258;-48
2023/05/13 02:03:50;;;;;;;28.10;17.20;;;23.00;57.00;;;;;;221943;1259;22520;-48
2023/05/13 02:08:55;;;;;;;26.10;17.00;;;23.00;56.50;;;;;;221949;1263;24045;-46
2023/05/13 02:13:59;;;;;;;28.30;16.00;;;23.00;56.90;;;;;;221451;1259;346506;-47
2023/05/13 02:19:03;;;;;;;24.90;15.90;;;22.90;56.80;;;;;;221764;1256;24263;-48
2023/05/13 02:24:08;;;;;;;22.70;15.60;;;22.90;56.80;;;;;;221753;1257;22517;-44
2023/05/13 02:29:12;;;;;;;24.90;15.20;;;22.90;56.70;;;;;;221881;1256;22602;-48
2023/05/13 02:34:17;;;;;;;25.30;15.20;;;22.90;56.80;;;;;;221756;1264;25294;-45
2023/05/13 02:39:21;;;;;;;20.20;14.00;;;22.90;56.80;;;;;;221840;1256;22532;-46
2023/05/13 02:44:26;;;;;;;20.70;14.30;;;22.90;56.70;;;;;;221649;1264;23856;-46
2023/05/13 02:49:30;;;;;;;22.30;13.90;;;22.90;56.70;;;;;;221759;1265;22528;-46
2023/05/13 02:54:34;;;;;;;21.70;13.40;;;22.90;57.30;;;;;;221877;1267;22690;-47
2023/05/13 02:59:39;;;;;;;19.20;14.30;;;22.80;56.60;;;;;;221717;1256;22526;-46
2023/05/13 03:04:43;;;;;;;20.90;14.00;;;22.80;56.60;;;;;;221718;1262;25392;-48
2023/05/13 03:09:47;;;;;;;18.90;12.90;;;22.80;56.50;;;;;;221818;1256;22519;-46
2023/05/13 03:14:51;;;;;;;18.20;12.70;;;22.80;56.80;;;;;;221726;1256;23911;-49
2023/05/13 03:19:55;;;;;;;21.00;14.10;;;22.80;56.40;;;;;;221781;1268;22511;-50
2023/05/13 03:25:00;;;;;;;18.70;11.80;;;22.80;56.50;;;;;;222031;1257;24371;-48
2023/05/13 03:30:09;;;;;;;17.40;12.10;;;22.70;56.40;;;;;;221787;1262;23005;-45
2023/05/13 03:35:20;;;;;;;18.00;12.40;;;22.70;56.40;;;;;;221904;1258;23884;-45
2023/05/13 03:40:24;;;;;;;18.50;11.40;;;22.70;56.40;;;;;;221752;1266;22517;-46
2023/05/13 03:45:28;;;;;;;18.40;12.00;;;22.70;56.70;;;;;;221889;1270;22517;-43
2023/05/13 03:50:34;;;;;;;17.10;11.90;;;22.70;56.80;;;;;;221782;1265;22510;-47
2023/05/13 03:55:39;;;;;;;17.90;12.60;;;22.70;56.50;;;;;;221712;1259;22566;-45
2023/05/13 04:00:46;;;;;;;17.80;11.50;;;22.70;56.80;;;;;;221906;1262;22645;-52
2023/05/13 04:05:51;;;;;;;16.20;11.50;;;22.70;56.50;;;;;;221928;1266;22784;-52
2023/05/13 04:10:56;;;;;;;14.50;10.70;;;22.70;56.40;;;;;;221727;1264;22617;-46
2023/05/13 04:16:03;;;;;;;14.90;10.90;;;22.60;56.30;;;;;;221797;1258;22524;-45
2023/05/13 04:21:08;;;;;;;14.30;10.50;;;22.70;56.40;;;;;;221995;1266;25274;-45
2023/05/13 04:26:12;;;;;;;14.60;9.40;;;22.60;56.40;;;;;;222016;1256;24186;-47
2023/05/13 04:31:17;;;;;;;13.80;9.90;;;22.60;56.30;;;;;;221861;1268;23013;-50
2023/05/13 04:36:21;;;;;;;13.10;9.30;;;22.60;56.60;;;;;;221882;1264;25266;-47
2023/05/13 04:41:26;;;;;;;14.20;9.90;;;22.60;56.20;;;;;;221882;1265;22789;-46
2023/05/13 04:46:30;;;;;;;14.50;9.90;;;22.60;56.20;;;;;;221796;1267;24197;-47
2023/05/13 04:51:35;;;;;;;13.80;10.00;;;22.60;56.10;;;;;;221834;1266;22520;-48
2023/05/13 04:56:39;;;;;;;13.00;9.20;;;22.60;56.50;;;;;;221812;1265;24221;-47
2023/05/13 05:01:44;;;;;;;14.40;9.50;;;22.60;56.10;;;;;;221677;1263;22585;-44
2023/05/13 05:06:48;;;;;;;12.30;8.80;;;22.60;56.00;;;;;;223169;1260;24233;-47
2023/05/13 05:11:53;;;;;;;12.00;9.10;;;22.70;55.90;;;;;;228190;1272;22526;-45
2023/05/13 05:17:00;;;;;;;10.80;8.80;;;22.80;55.70;;;;;;226684;1263;22523;-45
2023/05/13 05:22:05;;;;;;;10.80;8.40;;;22.80;55.20;;;;;;225639;1272;24190;-48
2023/05/13 05:27:09;;;;;;;11.40;8.10;;;22.90;55.20;;;;;;221827;1265;25462;-52
2023/05/13 05:32:14;;;;;;;10.20;9.10;;;22.80;55.40;;;;;;221950;1259;22602;-48
2023/05/13 05:37:18;;;;;;;10.70;8.50;;;22.70;55.70;;;;;;221746;1264;24226;-46
2023/05/13 05:42:23;;;;;;;10.10;8.10;;;22.60;55.80;;;;;;222053;1265;22567;-50
2023/05/13 05:47:27;;;;;;;11.60;9.10;;;22.60;55.90;;;;;;221809;1263;22535;-45
2023/05/13 05:52:32;;;;;;;10.90;8.70;;;22.60;55.90;;;;;;221610;1249;24194;-46
2023/05/13 05:57:36;;;;;;;9.90;7.40;;;22.60;55.80;;;;;;225545;1266;22541;-51
2023/05/13 06:02:41;;;;;;;9.30;7.40;;;22.70;55.50;;;;;;221932;1256;22605;-50
2023/05/13 06:07:47;;;;;;;12.30;8.00;;;22.70;56.00;;;;;;221869;1256;23189;-44
2023/05/13 06:12:51;;;;;;;10.80;8.20;;;22.70;55.70;;;;;;222067;1265;25214;-49
2023/05/13 06:17:56;;;;;;;10.00;7.20;;;22.70;55.80;;;;;;221750;1261;25408;-46
2023/05/13 06:23:01;;;;;;;9.20;6.70;;;22.70;55.90;;;;;;221783;1266;22522;-47
2023/05/13 06:28:05;;;;;;;18.50;9.20;;;22.70;56.80;;;;;;221812;1258;23915;-49
2023/05/13 06:33:11;;;;;;;10.60;7.20;;;22.80;58.10;;;;;;221905;1259;24229;-48
2023/05/13 06:38:18;;;;;;;18.60;7.70;;;22.90;58.00;;;;;;221786;1265;25444;-47
2023/05/13 06:43:23;;;;;;;10.50;7.40;;;22.90;57.50;;;;;;221908;1259;25423;-48
2023/05/13 06:48:32;;;;;;;12.10;8.00;;;22.90;57.60;;;;;;221871;1264;25258;-46
2023/05/13 06:53:36;;;;;;;18.50;8.40;;;23.00;59.10;;;;;;221977;1265;22511;-50
2023/05/13 06:58:40;;;;;;;14.30;8.50;;;23.00;61.90;;;;;;221876;1257;22523;-47
2023/05/13 07:03:44;;;;;;;14.80;7.80;;;23.00;62.70;;;;;;221825;1265;22544;-47
2023/05/13 07:08:49;;;;;;;16.90;7.20;;;23.10;62.00;;;;;;221852;1269;22516;-46
2023/05/13 07:13:53;;;;;;;14.70;7.60;;;23.10;61.70;;;;;;221685;1250;23882;-50
2023/05/13 07:18:57;;;;;;;12.90;7.20;;;23.10;61.50;;;;;;221617;1259;22640;-48
2023/05/13 07:24:04;;;;;;;13.50;7.30;;;23.10;61.60;;;;;;221852;1250;25393;-45
2023/05/13 07:29:08;;;;;;;13.20;6.80;;;23.30;61.70;;;;;;221907;1265;22524;-47
2023/05/13 07:34:12;;;;;;;19.60;11.30;;;23.20;62.00;;;;;;221730;1266;23977;-46
2023/05/13 07:39:17;;;;;;;84.90;40.10;;;23.20;61.10;;;;;;221654;1266;22515;-44
2023/05/13 07:44:23;;;;;;;136.20;58.60;;;23.30;61.30;;;;;;221774;1263;24218;-51
2023/05/13 07:49:27;;;;;;;148.90;63.70;;;23.30;60.90;;;;;;221621;1265;23571;-46
2023/05/13 07:54:31;;;;;;;114.50;55.50;;;23.30;60.70;;;;;;221410;1259;22514;-47
2023/05/13 07:59:35;;;;;;;124.90;56.50;;;23.30;61.70;;;;;;221613;1255;24193;-48
2023/05/13 08:04:39;;;;;;;124.10;53.60;;;23.40;60.20;;;;;;221574;1259;24212;-52
2023/05/13 08:09:43;;;;;;;109.00;49.50;;;23.40;59.70;;;;;;221551;1262;22498;-48
2023/05/13 08:14:48;;;;;;;102.40;44.50;;;23.40;59.00;;;;;;221648;1265;23135;-46
2023/05/13 08:19:52;;;;;;;96.20;44.60;;;23.40;59.30;;;;;;221536;1257;23917;-48
2023/05/13 08:24:58;;;;;;;99.20;44.00;;;23.40;59.50;;;;;;221600;1249;23883;-47
2023/05/13 08:30:04;;;;;;;99.30;45.00;;;23.60;59.50;;;;;;221522;1265;24669;-50
2023/05/13 08:35:08;;;;;;;89.30;41.30;;;23.50;59.10;;;;;;221188;1261;25476;-52
2023/05/13 08:40:14;;;;;;;86.60;40.50;;;23.40;58.90;;;;;;226102;1269;22518;-53
2023/05/13 08:45:20;;;;;;;76.10;37.80;;;23.90;58.00;;;;;;222152;1266;22782;-52
2023/05/13 08:50:26;;;;;;;77.20;35.30;;;23.70;57.80;;;;;;222916;1259;23058;-51
2023/05/13 08:55:30;;;;;;;73.40;36.50;;;23.60;57.80;;;;;;222148;1268;22553;-55
2023/05/13 09:00:34;;;;;;;63.30;33.70;;;23.50;57.70;;;;;;221956;1263;22565;-52
2023/05/13 09:05:38;;;;;;;65.20;32.00;;;23.40;58.10;;;;;;221705;1262;25184;-53
2023/05/13 09:10:43;;;;;;;62.10;32.60;;;23.40;57.90;;;;;;221849;1265;24225;-53
2023/05/13 09:15:49;;;;;;;58.40;29.10;;;23.40;57.70;;;;;;221685;1272;23090;-53
2023/05/13 09:20:53;;;;;;;59.00;29.80;;;23.40;57.50;;;;;;221914;1264;23092;-57
2023/05/13 09:25:57;;;;;;;53.40;29.20;;;23.40;57.30;;;;;;221570;1268;22638;-53
2023/05/13 09:31:01;;;;;;;45.90;26.90;;;23.50;56.90;;;;;;221781;1264;22530;-58
2023/05/13 09:36:06;;;;;;;48.20;27.30;;;23.50;56.60;;;;;;221827;1256;25272;-58
2023/05/13 09:41:10;;;;;;;39.90;25.20;;;23.50;56.40;;;;;;221530;1262;22835;-55
2023/05/13 09:46:14;;;;;;;46.80;24.80;;;23.50;56.30;;;;;;221702;1266;26694;-52
2023/05/13 09:51:24;;;;;;;40.90;24.10;;;23.50;56.10;;;;;;221821;1264;22761;-52
2023/05/13 09:56:30;;;;;;;35.70;22.80;;;23.50;55.80;;;;;;221837;1271;24406;-53
2023/05/13 10:01:35;;;;;;;37.00;22.20;;;23.50;55.60;;;;;;221892;1266;22648;-49
2023/05/13 10:06:39;;;;;;;32.80;20.30;;;23.60;55.50;;;;;;221886;1259;22529;-53
2023/05/13 10:11:47;;;;;;;35.70;20.10;;;23.60;55.20;;;;;;221788;1265;25676;-58
2023/05/13 10:16:51;;;;;;;33.00;20.10;;;23.60;54.90;;;;;;221882;1257;22603;-52
2023/05/13 10:21:56;;;;;;;33.10;20.10;;;23.60;55.20;;;;;;221693;1257;24065;-53
2023/05/13 10:27:02;;;;;;;33.90;18.50;;;23.60;54.90;;;;;;221883;1255;24250;-52
2023/05/13 10:32:08;;;;;;;32.10;18.50;;;23.60;54.50;;;;;;222162;1264;24379;-54
2023/05/13 10:37:42;;;;;;;28.10;18.00;;;23.70;54.30;;;;;;222027;1257;24358;-54
2023/05/13 10:43:17;;;;;;;28.60;16.90;;;23.70;54.00;;;;;;221734;1256;25469;-55
2023/05/13 10:48:22;;;;;;;27.20;17.50;;;23.70;53.80;;;;;;222040;1266;22514;-59
2023/05/13 10:53:31;;;;;;;26.50;15.20;;;23.70;53.60;;;;;;221675;1266;22525;-58
2023/05/13 10:58:38;;;;;;;24.80;15.30;;;23.80;53.50;;;;;;221892;1257;22530;-53
2023/05/13 11:04:00;;;;;;;22.50;15.00;;;23.70;53.90;;;;;;221971;1263;22513;-49
2023/05/13 11:09:06;;;;;;;26.70;14.80;;;23.70;53.50;;;;;;221683;1269;24413;-56
2023/05/13 11:14:15;;;;;;;22.50;15.00;;;23.70;53.60;;;;;;222035;1266;25317;-52
2023/05/13 11:19:27;;;;;;;21.10;13.90;;;23.70;53.60;;;;;;221995;1257;24178;-52
2023/05/13 11:24:31;;;;;;;;;;;23.60;53.30;;;;;;221888;1271;23899;-52
2023/05/13 11:29:37;;;;;;;17.10;12.40;;;23.60;53.50;;;;;;221981;1267;24169;-58
2023/05/13 11:34:50;;;;;;;19.90;13.50;;;23.60;53.20;;;;;;222006;1266;25258;-53
2023/05/13 11:39:55;;;;;;;19.40;13.50;;;23.60;53.40;;;;;;221965;1269;22521;-59
2023/05/13 11:44:59;;;;;;;18.80;12.50;;;23.70;53.10;;;;;;222069;1266;23894;-57
2023/05/13 11:50:20;;;;;;;21.00;12.10;;;23.70;53.00;;;;;;221879;1268;22630;-59
2023/05/13 11:55:35;;;;;;;16.40;10.80;;;23.70;53.00;;;;;;221897;1269;25554;-53
2023/05/13 12:00:40;;;;;;;17.20;10.70;;;23.60;52.70;;;;;;222163;1256;22510;-53
2023/05/13 12:05:48;;;;;;;14.50;11.20;;;23.60;52.60;;;;;;221707;1269;22508;-52
2023/05/13 12:10:52;;;;;;;16.30;10.90;;;23.60;52.80;;;;;;222087;1259;25343;-55
2023/05/13 12:15:57;;;;;;;14.90;10.40;;;23.60;52.60;;;;;;222039;1256;22513;-56
2023/05/13 12:21:13;;;;;;;16.80;10.70;;;23.60;52.80;;;;;;221935;1258;26630;-58
2023/05/13 12:26:18;;;;;;;13.80;9.80;;;23.60;52.60;;;;;;222097;1269;23158;-53
2023/05/13 12:31:22;;;;;;;12.90;9.30;;;23.60;52.50;;;;;;222009;1256;22518;-54
2023/05/13 12:36:34;;;;;;;14.30;9.40;;;23.60;52.60;;;;;;221843;1263;24301;-55
2023/05/13 12:41:41;;;;;;;13.60;8.70;;;23.60;52.40;;;;;;221923;1266;25565;-51
2023/05/13 12:46:52;;;;;;;12.00;9.30;;;23.60;52.20;;;;;;221770;1269;22598;-53
2023/05/13 12:51:57;;;;;;;12.80;9.00;;;23.50;52.00;;;;;;221895;1265;23955;-52
2023/05/13 12:57:08;;;;;;;13.00;9.40;;;23.60;52.10;;;;;;221771;1257;25269;-53
2023/05/13 13:02:12;;;;;;;10.50;7.80;;;23.60;52.10;;;;;;222005;1263;24396;-52
2023/05/13 13:07:16;;;;;;;10.80;8.90;;;23.60;52.10;;;;;;221837;1260;22626;-54
2023/05/13 13:12:20;;;;;;;10.50;8.20;;;23.60;52.00;;;;;;221624;1257;22534;-52
2023/05/13 13:17:24;;;;;;;10.70;8.00;;;23.50;51.60;;;;;;221836;1251;22603;-54
2023/05/13 13:22:28;;;;;;;9.10;7.60;;;23.50;51.40;;;;;;221799;1266;24501;-51
2023/05/13 13:27:34;;;;;;;10.30;7.20;;;23.50;51.40;;;;;;221898;1268;24405;-51
2023/05/13 13:32:42;;;;;;;9.50;7.40;;;23.50;51.50;;;;;;221755;1256;24215;-49
2023/05/13 13:37:46;;;;;;;11.00;6.50;;;23.50;51.30;;;;;;221822;1254;22616;-54
2023/05/13 13:42:50;;;;;;;10.00;7.00;;;23.50;51.20;;;;;;221791;1267;23931;-55
2023/05/13 13:47:55;;;;;;;8.20;6.60;;;23.50;51.30;;;;;;221871;1264;22525;-56
2023/05/13 13:52:59;;;;;;;9.90;6.80;;;23.40;51.70;;;;;;221910;1266;24357;-53
2023/05/13 13:58:03;;;;;;;10.30;6.90;;;23.40;51.30;;;;;;221616;1272;24240;-54
2023/05/13 14:03:07;;;;;;;7.20;6.50;;;23.50;51.30;;;;;;221766;1260;22512;-55
2023/05/13 14:08:11;;;;;;;8.10;5.90;;;23.50;51.30;;;;;;221798;1266;22636;-53
2023/05/13 14:13:15;;;;;;;6.40;5.70;;;23.50;51.10;;;;;;221765;1267;187643;-53
2023/05/13 14:18:19;;;;;;;7.70;5.90;;;23.50;51.10;;;;;;222102;1266;22650;-53
2023/05/13 14:23:23;;;;;;;9.40;6.60;;;23.50;51.10;;;;;;221633;1260;22519;-54
2023/05/13 14:28:27;;;;;;;7.80;6.40;;;23.50;51.00;;;;;;221796;1265;24461;-52
2023/05/13 14:33:31;;;;;;;9.60;5.80;;;23.50;51.00;;;;;;221810;1267;25345;-53
2023/05/13 14:38:38;;;;;;;6.70;6.00;;;23.50;51.00;;;;;;221822;1270;24225;-52
2023/05/13 14:43:42;;;;;;;6.70;5.90;;;23.50;50.90;;;;;;221814;1271;22523;-51
2023/05/13 14:48:46;;;;;;;7.20;5.70;;;23.40;51.20;;;;;;221914;1257;22562;-54
2023/05/13 14:53:50;;;;;;;6.50;5.30;;;23.40;50.70;;;;;;221773;1260;25393;-51
2023/05/13 14:58:55;;;;;;;6.00;5.20;;;23.40;50.80;;;;;;222023;1259;25321;-53
2023/05/13 15:03:59;;;;;;;7.00;4.90;;;23.40;50.70;;;;;;222026;1257;26660;-56
2023/05/13 15:09:04;;;;;;;5.50;5.00;;;23.40;50.60;;;;;;221713;1257;24189;-55
2023/05/13 15:14:09;;;;;;;6.80;5.70;;;23.40;50.50;;;;;;221748;1266;22525;-53
2023/05/13 15:19:13;;;;;;;5.30;4.80;;;23.40;50.40;;;;;;221859;1264;22675;-50
2023/05/13 15:24:17;;;;;;;5.40;4.80;;;23.40;50.80;;;;;;221780;1265;25603;-48
2023/05/13 15:29:21;;;;;;;5.90;4.90;;;23.40;50.60;;;;;;221699;1259;24148;-52
2023/05/13 15:34:25;;;;;;;7.50;5.20;;;23.40;50.20;;;;;;221828;1258;22518;-50
2023/05/13 15:39:30;;;;;;;5.90;5.10;;;23.40;50.20;;;;;;221850;1260;22535;-56
2023/05/13 15:44:34;;;;;;;6.50;4.80;;;23.30;50.50;;;;;;221870;1265;22519;-51
2023/05/13 15:49:38;;;;;;;5.10;4.50;;;23.40;50.10;;;;;;221999;1267;24337;-54
2023/05/13 15:54:42;;;;;;;5.10;4.50;;;23.30;50.10;;;;;;221715;1269;22512;-53
2023/05/13 15:59:46;;;;;;;5.70;5.00;;;23.30;50.10;;;;;;221960;1269;22515;-55
2023/05/13 16:04:50;;;;;;;5.20;4.60;;;23.30;50.10;;;;;;221771;1257;22583;-54
2023/05/13 16:09:54;;;;;;;5.20;4.70;;;23.30;50.20;;;;;;221769;1257;23147;-51
2023/05/13 16:14:58;;;;;;;15.00;4.70;;;23.30;50.10;;;;;;222371;1265;22538;-57
2023/05/13 16:20:03;;;;;;;12.90;5.20;;;23.30;50.50;;;;;;221932;1261;22520;-56
2023/05/13 16:25:08;;;;;;;15.30;4.90;;;23.40;51.00;;;;;;221778;1259;24218;-55
2023/05/13 16:30:13;;;;;;;13.80;5.40;;;23.40;50.70;;;;;;221482;1263;22604;-53
2023/05/13 16:35:21;;;;;;;8.90;4.70;;;23.50;52.20;;;;;;221642;1271;22524;-52
2023/05/13 16:40:25;;;;;;;14.00;4.80;;;23.60;51.90;;;;;;221633;1247;24270;-51
2023/05/13 16:45:29;;;;;;;8.10;4.40;;;23.60;51.80;;;;;;221624;1265;22534;-54
2023/05/13 16:50:33;;;;;;;7.40;4.50;;;23.60;51.60;;;;;;221495;1269;24340;-53
2023/05/13 16:55:39;;;;;;;11.40;4.90;;;23.70;51.60;;;;;;221576;1258;24274;-56
2023/05/13 17:00:43;;;;;;;9.30;4.30;;;23.70;51.80;;;;;;221500;1262;22559;-56
2023/05/13 17:05:47;;;;;;;5.30;4.40;;;23.70;52.10;;;;;;221358;1259;24223;-53
2023/05/13 17:10:52;;;;;;;5.60;4.20;;;23.80;51.80;;;;;;221564;1266;23948;-54
2023/05/13 17:15:56;;;;;;;6.30;4.30;;;23.70;51.90;;;;;;221353;1267;22505;-52
2023/05/13 17:21:03;;;;;;;13.40;5.00;;;23.70;51.70;;;;;;221692;1265;25271;-55
2023/05/13 17:26:08;;;;;;;8.40;4.30;;;23.80;51.80;;;;;;221821;1259;22520;-57
2023/05/13 17:31:12;;;;;;;11.30;4.80;;;23.70;52.20;;;;;;221677;1266;24187;-59
2023/05/13 17:36:16;;;;;;;21.40;4.90;;;23.60;52.00;;;;;;221696;1264;22619;-56
2023/05/13 17:41:21;;;;;;;15.80;4.60;;;23.70;52.90;;;;;;221444;1266;22626;-56
2023/05/13 17:46:25;;;;;;;9.80;4.50;;;23.80;52.40;;;;;;221567;1267;24407;-53
2023/05/13 17:51:29;;;;;;;16.90;5.70;;;23.60;53.00;;;;;;222124;1264;24340;-55
2023/05/13 17:56:33;;;;;;;14.30;4.40;;;23.60;53.00;;;;;;221715;1257;25325;-50
2023/05/13 18:01:37;;;;;;;23.50;9.40;;;23.50;53.20;;;;;;221774;1251;22564;-48
2023/05/13 18:06:41;;;;;;;28.00;5.20;;;23.60;53.30;;;;;;221541;1258;24244;-47
2023/05/13 18:11:46;;;;;;;27.30;4.90;;;23.50;53.80;;;;;;221934;1264;25337;-51
2023/05/13 18:16:49;;;;;;;25.60;5.20;;;23.60;53.80;;;;;;221726;1264;23052;-50
2023/05/13 18:21:53;;;;;;;22.20;5.70;;;23.60;53.50;;;;;;221710;1260;23940;-50
2023/05/13 18:26:57;;;;;;;21.30;6.40;;;23.50;52.90;;;;;;221686;1257;24231;-54
2023/05/13 18:32:03;;;;;;;21.70;6.50;;;23.50;52.30;;;;;;221747;1264;24111;-51
2023/05/13 18:37:07;;;;;;;18.30;6.60;;;23.50;52.50;;;;;;221818;1257;24227;-53
2023/05/13 18:42:11;;;;;;;21.70;8.30;;;23.40;52.30;;;;;;221778;1264;22633;-51
2023/05/13 18:47:17;;;;;;;17.60;6.60;;;23.50;53.10;;;;;;220590;1264;25329;-47
2023/05/13 18:52:21;;;;;;;11.80;5.80;;;23.50;52.50;;;;;;220597;1270;22534;-47
2023/05/13 18:57:26;;;;;;;13.70;5.80;;;23.60;52.80;;;;;;220737;1270;24064;-50
2023/05/13 19:02:30;;;;;;;18.20;5.70;;;23.60;52.80;;;;;;221023;1264;25268;-50
2023/05/13 19:07:35;;;;;;;11.40;5.80;;;23.50;53.10;;;;;;221744;1264;25584;-47
2023/05/13 19:12:39;;;;;;;17.30;6.80;;;23.60;53.50;;;;;;221924;1256;24252;-47
2023/05/13 19:17:46;;;;;;;13.80;5.80;;;23.50;53.60;;;;;;221744;1261;22513;-50
2023/05/13 19:22:51;;;;;;;8.90;5.80;;;23.50;53.80;;;;;;221764;1257;24243;-51
2023/05/13 19:27:57;;;;;;;11.40;6.60;;;23.40;53.60;;;;;;221828;1261;23598;-52
2023/05/13 19:33:03;;;;;;;10.80;6.20;;;23.40;53.50;;;;;;221918;1264;24244;-47
2023/05/13 19:38:08;;;;;;;10.60;6.10;;;23.40;53.80;;;;;;222040;1258;24276;-52
2023/05/13 19:43:17;;;;;;;10.50;5.90;;;23.40;53.60;;;;;;221844;1264;22553;-52
2023/05/13 19:48:22;;;;;;;10.90;5.80;;;23.40;54.10;;;;;;221927;1247;22529;-49
2023/05/13 19:53:27;;;;;;;9.50;5.60;;;23.30;53.80;;;;;;221813;1262;22626;-50
2023/05/13 19:58:32;;;;;;;6.90;5.10;;;23.40;53.90;;;;;;221817;1258;24247;-50
2023/05/13 20:03:36;;;;;;;8.50;5.70;;;23.30;53.90;;;;;;221952;1256;23520;-53
2023/05/13 20:08:41;;;;;;;9.70;5.50;;;23.30;54.00;;;;;;221918;1259;22510;-53
2023/05/13 20:13:45;;;;;;;11.60;6.10;;;23.40;53.80;;;;;;221861;1263;24118;-49
2023/05/13 20:18:50;;;;;;;9.00;5.70;;;23.30;54.00;;;;;;221661;1250;22547;-55
2023/05/13 20:23:55;;;;;;;9.30;6.30;;;23.30;54.10;;;;;;221748;1264;22514;-54
2023/05/13 20:29:00;;;;;;;31.90;6.60;;;23.30;54.00;;;;;;221699;1267;22526;-50
2023/05/13 20:34:05;;;;;;;5.90;5.30;;;23.30;53.80;;;;;;221713;1260;22520;-49
2023/05/13 20:39:11;;;;;;;6.50;5.20;;;23.30;54.00;;;;;;221946;1264;24321;-49
2023/05/13 20:44:16;;;;;;;7.70;5.90;;;23.20;54.00;;;;;;221910;1256;22575;-50
2023/05/13 20:49:21;;;;;;;7.90;5.30;;;23.20;54.10;;;;;;222017;1263;23172;-53
2023/05/13 20:54:25;;;;;;;11.50;5.80;;;23.20;54.10;;;;;;222024;1264;22764;-47
2023/05/13 20:59:30;;;;;;;7.90;5.70;;;23.20;54.10;;;;;;221776;1263;23930;-54
2023/05/13 21:04:34;;;;;;;6.80;5.70;;;23.20;54.20;;;;;;221991;1257;22626;-47
2023/05/13 21:09:38;;;;;;;8.50;6.10;;;23.20;54.50;;;;;;221977;1256;24047;-50
2023/05/13 21:14:43;;;;;;;23.50;6.80;;;23.20;54.00;;;;;;222043;1265;24351;-52
2023/05/13 21:19:48;;;;;;;8.70;5.80;;;23.20;54.10;;;;;;222006;1266;24218;-51
2023/05/13 21:24:53;;;;;;;10.50;5.60;;;23.10;53.90;;;;;;222131;1264;22558;-51
2023/05/13 21:29:57;;;;;;;11.50;5.60;;;23.20;54.10;;;;;;222082;1264;22517;-44
2023/05/13 21:35:01;;;;;;;23.20;13.00;;;23.20;54.00;;;;;;222199;1264;22541;-50
2023/05/13 21:40:07;;;;;;;161.30;71.40;;;23.10;53.60;;;;;;222171;1266;23928;-45
2023/05/13 21:45:13;;;;;;;173.20;85.30;;;23.10;53.70;;;;;;221817;1266;26593;-45
2023/05/13 21:50:18;;;;;;;121.80;60.00;;;23.10;53.70;;;;;;221791;1264;24179;-50
2023/05/13 21:55:23;;;;;;;106.50;53.30;;;23.10;53.70;;;;;;221710;1263;24182;-46
2023/05/13 22:00:27;;;;;;;103.10;48.10;;;23.10;53.80;;;;;;221683;1256;22633;-47
2023/05/13 22:05:31;;;;;;;96.10;44.20;;;23.20;54.60;;;;;;221886;1264;22808;-44
2023/05/13 22:10:37;;;;;;;80.70;40.10;;;23.20;54.80;;;;;;221923;1267;22607;-47
2023/05/13 22:15:41;;;;;;;93.40;39.90;;;23.10;54.20;;;;;;222198;1261;24327;-47
2023/05/13 22:20:45;;;;;;;85.70;39.50;;;23.00;54.20;;;;;;222158;1265;22622;-47
2023/05/13 22:25:53;;;;;;;79.40;38.50;;;23.20;55.00;;;;;;222210;1263;22502;-47
2023/05/13 22:30:58;;;;;;;72.90;37.00;;;23.10;55.20;;;;;;222216;1257;25275;-46
2023/05/13 22:36:02;;;;;;;74.70;35.70;;;23.10;55.30;;;;;;221899;1267;24173;-50
2023/05/13 22:41:06;;;;;;;75.00;38.10;;;23.10;55.60;;;;;;222019;1264;24218;-46
2023/05/13 22:46:10;;;;;;;67.30;35.20;;;23.00;55.60;;;;;;221895;1260;22528;-46
2023/05/13 22:51:15;;;;;;;65.80;33.50;;;23.00;56.00;;;;;;221882;1256;22530;-48
2023/05/13 22:56:18;;;;;;;68.90;32.20;;;23.00;55.70;;;;;;221851;1264;22661;-50
2023/05/13 23:01:22;;;;;;;60.00;33.20;;;23.00;55.70;;;;;;221835;1267;22519;-50
2023/05/13 23:06:27;;;;;;;62.60;31.90;;;23.00;55.70;;;;;;221742;1266;24229;-47
2023/05/13 23:11:31;;;;;;;58.20;30.90;;;23.00;55.50;;;;;;221932;1264;24206;-46
2023/05/13 23:16:35;;;;;;;61.30;31.70;;;23.00;55.60;;;;;;222226;1263;22523;-49
2023/05/13 23:21:39;;;;;;;60.00;30.80;;;23.00;55.70;;;;;;221790;1256;25357;-47
2023/05/13 23:26:44;;;;;;;57.30;31.80;;;22.90;55.70;;;;;;221853;1256;23409;-42
2023/05/13 23:31:50;;;;;;;55.40;29.40;;;23.00;55.60;;;;;;221940;1258;22541;-42
2023/05/13 23:36:55;;;;;;;55.90;28.90;;;22.90;55.40;;;;;;221738;1259;24325;-43
2023/05/13 23:41:59;;;;;;;55.30;27.90;;;22.90;55.40;;;;;;221821;1257;24199;-40
2023/05/13 23:47:03;;;;;;;49.70;28.40;;;22.90;55.40;;;;;;221937;1256;24218;-42
2023/05/13 23:52:07;;;;;;;50.40;27.80;;;22.80;55.40;;;;;;221802;1256;25234;-39
2023/05/13 23:57:11;;;;;;;53.10;28.20;;;22.90;55.20;;;;;;221388;1257;22553;-42
